Time;durP1;ratioP1;P1;durP2;ratioP2;P2;SDS_P1;SDS_P2;PMS_P1;PMS_P2;Temp;Humidity;BMP_temperature;BMP_pressure;BME280_temperature;BME280_humidity;BME280_pressure;Samples;Min_cycle;Max_cycle;Signal;HPM_P1;HPM_P2
2024/01/27 00:00:25;;;;;;;;;;;;;;;26.67;39.87;95693.28;5045403;28;9402;-59
2024/01/27 00:02:53;;;;;;;;;;;;;;;26.66;39.82;95694.53;5054063;28;7102;-58
2024/01/27 00:05:19;;;;;;;;;;;;;;;26.65;39.71;95691.03;5050535;28;9112;-58
2024/01/27 00:07:52;;;;;;;;;;;;;;;26.68;39.47;95698.34;5036478;28;8514;-58
2024/01/27 00:10:35;;;;;;;;;;;;;;;26.68;39.65;95694.81;5044951;28;7036;-39
2024/01/27 00:13:03;;;;;;;;;;;;;;;26.66;39.72;95695.31;5035876;28;7245;-39
2024/01/27 00:15:38;;;;;;;;;;;;;;;26.67;39.81;95696.81;5042194;28;7317;-39
2024/01/27 00:18:10;;;;;;;;;;;;;;;26.68;39.78;95690.06;5040322;28;9090;-38
2024/01/27 00:20:45;;;;;;;;;;;;;;;26.69;39.86;95693.56;5052523;28;7529;-56
2024/01/27 00:23:11;;;;;;;;;;;;;;;26.69;39.53;95704.59;5046701;28;7445;-56
2024/01/27 00:25:42;;;;;;;;;;;;;;;26.72;39.43;95700.88;5041451;28;7389;-57
2024/01/27 00:28:53;;;;;;;;;;;;;;;26.71;39.62;95710.38;5052925;28;8815;-56
2024/01/27 00:31:43;;;;;;;;;;;;;;;26.70;39.30;95720.69;5014572;28;9155;-56
2024/01/27 00:34:10;;;;;;;;;;;;;;;26.70;39.80;95720.69;5000948;28;7085;-56
2024/01/27 00:36:37;;;;;;;;;;;;;;;26.72;39.33;95718.19;5007304;28;9030;-57
2024/01/27 00:39:04;;;;;;;;;;;;;;;26.72;39.14;95717.44;5011880;28;9610;-56
2024/01/27 00:41:30;;;;;;;;;;;;;;;26.73;39.23;95730.03;5007617;28;6989;-55
2024/01/27 00:44:05;;;;;;;;;;;;;;;26.72;39.00;95731.22;5016585;28;9069;-56
2024/01/27 00:46:31;;;;;;;;;;;;;;;26.72;38.87;95720.19;5033190;28;6968;-56
2024/01/27 00:49:06;;;;;;;;;;;;;;;26.71;39.19;95729.72;5031885;28;6954;-57
2024/01/27 00:51:32;;;;;;;;;;;;;;;26.71;39.16;95735.22;5022613;28;9115;-56
2024/01/27 00:54:09;;;;;;;;;;;;;;;26.68;38.99;95731.47;5025806;28;8779;-56
2024/01/27 00:56:35;;;;;;;;;;;;;;;26.69;39.48;95732.19;5014561;28;8760;-56
2024/01/27 00:59:03;;;;;;;;;;;;;;;26.69;39.24;95729.44;5016100;28;7449;-56
2024/01/27 01:01:31;;;;;;;;;;;;;;;26.69;39.22;95732.19;5022811;28;7187;-56
2024/01/27 01:04:10;;;;;;;;;;;;;;;26.68;38.91;95734.22;5009043;28;7002;-56
2024/01/27 01:06:45;;;;;;;;;;;;;;;26.67;38.85;95737.44;5014816;28;8697;-56
2024/01/27 01:09:13;;;;;;;;;;;;;;;26.63;39.53;95734.16;5040869;28;9476;-56
2024/01/27 01:11:42;;;;;;;;;;;;;;;26.66;39.40;95745.00;5047024;28;9212;-56
2024/01/27 01:14:14;;;;;;;;;;;;;;;26.67;39.16;95745.72;5035252;28;8930;-56
2024/01/27 01:16:44;;;;;;;;;;;;;;;26.66;39.12;95735.94;5040737;28;6988;-56
2024/01/27 01:19:28;;;;;;;;;;;;;;;26.63;39.14;95740.44;5051345;28;7201;-56
2024/01/27 01:21:54;;;;;;;;;;;;;;;26.64;38.98;95746.72;5038187;28;7241;-56
2024/01/27 01:24:59;;;;;;;;;;;;;;;26.64;39.40;95752.22;5040749;28;7226;-56
2024/01/27 01:27:32;;;;;;;;;;;;;;;26.62;39.34;95749.94;5051403;28;7001;-56
2024/01/27 01:29:59;;;;;;;;;;;;;;;26.61;39.43;95750.44;5050908;28;7262;-38
2024/01/27 01:32:26;;;;;;;;;;;;;;;26.64;39.66;95752.22;5034702;28;9066;-39
2024/01/27 01:34:52;;;;;;;;;;;;;;;26.64;38.88;95755.00;5043588;28;6991;-39
2024/01/27 01:37:29;;;;;;;;;;;;;;;26.63;39.22;95747.94;5035933;28;8000;-38
2024/01/27 01:43:58;;;;;;;;;;;;;;;26.60;39.11;95755.19;5044215;28;9832;-39
2024/01/27 01:46:51;;;;;;;;;;;;;;;26.63;39.10;95770.03;4955223;28;9330;-39
2024/01/27 01:49:17;;;;;;;;;;;;;;;26.60;39.28;95763.47;4964717;28;7062;-41
2024/01/27 01:51:59;;;;;;;;;;;;;;;26.61;39.00;95759.47;4934676;28;6975;-39
2024/01/27 01:54:27;;;;;;;;;;;;;;;26.62;38.97;95760.25;4950055;28;7259;-39
2024/01/27 01:56:59;;;;;;;;;;;;;;;26.62;39.13;95755.47;4948911;28;7057;-39
2024/01/27 01:59:25;;;;;;;;;;;;;;;26.61;39.31;95748.44;4938718;28;9176;-39
2024/01/27 02:01:53;;;;;;;;;;;;;;;26.59;39.51;95744.63;4955021;28;8839;-39
2024/01/27 02:04:21;;;;;;;;;;;;;;;26.61;39.27;95742.91;4955028;28;9122;-39
2024/01/27 02:06:49;;;;;;;;;;;;;;;26.60;38.76;95741.38;4950973;28;7176;-39
2024/01/27 02:09:24;;;;;;;;;;;;;;;26.60;39.36;95737.91;4951441;28;9308;-40
2024/01/27 02:12:00;;;;;;;;;;;;;;;26.60;39.26;95740.66;4941914;28;9586;-39
2024/01/27 02:14:30;;;;;;;;;;;;;;;26.56;39.07;95740.84;4939189;28;6981;-39
2024/01/27 02:17:17;;;;;;;;;;;;;;;26.58;39.63;95754.16;4938740;28;8047;-39
2024/01/27 02:19:43;;;;;;;;;;;;;;;26.60;39.33;95759.97;4943373;28;7054;-39
2024/01/27 02:22:13;;;;;;;;;;;;;;;26.59;38.87;95764.72;4980871;28;7254;-39
2024/01/27 02:24:43;;;;;;;;;;;;;;;26.59;39.01;95761.19;5044498;28;7184;-39
2024/01/27 02:27:15;;;;;;;;;;;;;;;26.57;38.97;95764.44;5046245;28;9047;-39
2024/01/27 02:29:42;;;;;;;;;;;;;;;26.58;39.14;95754.91;5047201;28;8891;-39
2024/01/27 02:32:09;;;;;;;;;;;;;;;26.60;38.94;95765.50;5033280;28;9103;-40
2024/01/27 02:34:41;;;;;;;;;;;;;;;26.58;39.42;95768.72;5041806;28;7330;-39
2024/01/27 02:37:21;;;;;;;;;;;;;;;26.58;39.21;95767.94;5033827;28;6983;-40
2024/01/27 02:39:47;;;;;;;;;;;;;;;26.59;39.09;95769.47;5041091;28;7284;-56
2024/01/27 02:42:19;;;;;;;;;;;;;;;26.58;39.54;95771.47;5051467;28;7385;-57
2024/01/27 02:44:54;;;;;;;;;;;;;;;26.59;39.29;95777.75;5047466;28;7537;-58
2024/01/27 02:47:20;;;;;;;;;;;;;;;26.58;39.05;95781.75;5056075;28;7089;-57
2024/01/27 02:49:47;;;;;;;;;;;;;;;26.57;39.28;95774.72;5050554;28;7083;-58
2024/01/27 02:52:24;;;;;;;;;;;;;;;26.58;39.27;95776.22;5041711;28;7270;-57
2024/01/27 02:54:52;;;;;;;;;;;;;;;26.58;39.21;95765.94;5045812;28;7280;-58
2024/01/27 02:57:19;;;;;;;;;;;;;;;26.58;38.91;95759.66;5035045;28;9061;-57
2024/01/27 02:59:46;;;;;;;;;;;;;;;26.56;39.40;95762.16;5038263;28;7048;-57
2024/01/27 03:02:12;;;;;;;;;;;;;;;26.54;39.39;95765.41;5033534;28;7248;-58
2024/01/27 03:04:38;;;;;;;;;;;;;;;26.53;39.70;95763.91;5047128;28;8584;-58
2024/01/27 03:07:06;;;;;;;;;;;;;;;26.56;39.09;95762.16;5047944;28;7228;-58
2024/01/27 03:09:58;;;;;;;;;;;;;;;26.57;39.36;95763.69;5040484;28;9288;-58
2024/01/27 03:12:45;;;;;;;;;;;;;;;26.53;39.08;95761.16;5036724;28;8745;-57
2024/01/27 03:15:14;;;;;;;;;;;;;;;26.57;39.74;95760.94;5032250;28;7265;-57
2024/01/27 03:17:46;;;;;;;;;;;;;;;26.57;39.12;95763.69;5046670;28;9058;-58
2024/01/27 03:20:45;;;;;;;;;;;;;;;26.57;39.38;95758.16;5036204;28;8827;-57
2024/01/27 03:23:41;;;;;;;;;;;;;;;26.57;39.32;95764.44;4998693;28;7410;-57
2024/01/27 03:26:44;;;;;;;;;;;;;;;26.57;39.29;95769.19;4991084;28;7259;-57
2024/01/27 03:29:13;;;;;;;;;;;;;;;26.54;39.02;95768.16;4934011;29;9597;-57
2024/01/27 03:31:39;;;;;;;;;;;;;;;26.56;39.25;95770.44;4920163;29;8763;-57
2024/01/27 03:34:05;;;;;;;;;;;;;;;26.59;39.26;95761.19;4918024;29;7224;-57
2024/01/27 03:36:32;;;;;;;;;;;;;;;26.57;39.05;95764.44;4923035;29;7034;-57
2024/01/27 03:39:09;;;;;;;;;;;;;;;26.56;39.05;95762.16;4934085;29;7076;-57
2024/01/27 03:41:46;;;;;;;;;;;;;;;26.56;39.44;95765.69;4926832;29;7236;-58
2024/01/27 03:44:22;;;;;;;;;;;;;;;26.55;39.28;95771.69;4932499;29;8775;-58
2024/01/27 03:46:57;;;;;;;;;;;;;;;26.57;39.24;95774.72;4921376;29;6970;-58
2024/01/27 03:49:35;;;;;;;;;;;;;;;26.56;39.07;95785.00;4922598;29;7266;-57
2024/01/27 03:52:02;;;;;;;;;;;;;;;26.57;39.39;95785.75;4927731;29;7987;-38
2024/01/27 03:54:28;;;;;;;;;;;;;;;26.55;38.91;95786.25;4926950;29;7788;-38
2024/01/27 03:56:56;;;;;;;;;;;;;;;26.57;39.48;95799.56;4918440;29;7236;-40
2024/01/27 03:59:25;;;;;;;;;;;;;;;26.56;39.05;95792.50;4904554;29;6971;-40
2024/01/27 04:01:51;;;;;;;;;;;;;;;26.55;39.01;95791.00;4904872;28;8664;-39
2024/01/27 04:04:21;;;;;;;;;;;;;;;26.55;39.76;95791.00;5037615;28;7192;-40
2024/01/27 04:06:57;;;;;;;;;;;;;;;26.56;38.93;95795.28;5046906;28;7244;-39
2024/01/27 04:09:29;;;;;;;;;;;;;;;26.57;38.89;95794.03;5048875;28;7149;-40
2024/01/27 04:12:04;;;;;;;;;;;;;;;26.56;38.98;95795.28;5036203;28;7031;-42
2024/01/27 04:14:31;;;;;;;;;;;;;;;26.56;38.84;95787.00;5036932;28;7244;-40
2024/01/27 04:17:04;;;;;;;;;;;;;;;26.54;39.14;95793.00;5036504;28;9081;-42
2024/01/27 04:19:47;;;;;;;;;;;;;;;26.55;39.46;95791.00;5033079;28;7262;-39
2024/01/27 04:22:21;;;;;;;;;;;;;;;26.54;38.94;95787.47;5036656;28;6986;-39
2024/01/27 04:24:55;;;;;;;;;;;;;;;26.54;39.32;95798.53;5051064;28;7746;-40
2024/01/27 04:27:27;;;;;;;;;;;;;;;26.57;39.54;95805.06;5053179;28;7097;-40
2024/01/27 04:30:21;;;;;;;;;;;;;;;26.57;39.30;95794.81;5035851;28;9806;-39
2024/01/27 04:32:59;;;;;;;;;;;;;;;26.56;39.36;95800.78;5047347;28;7523;-39
2024/01/27 04:35:35;;;;;;;;;;;;;;;26.55;39.22;95804.81;5046637;28;7247;-40
2024/01/27 04:38:21;;;;;;;;;;;;;;;26.56;38.96;95804.31;5055651;28;7254;-39
2024/01/27 04:41:07;;;;;;;;;;;;;;;26.54;39.11;95800.50;5038155;28;8542;-40
2024/01/27 04:43:42;;;;;;;;;;;;;;;26.53;39.05;95797.03;5036065;28;7914;-41
2024/01/27 04:46:16;;;;;;;;;;;;;;;26.54;39.61;95811.56;5041832;28;6995;-40
2024/01/27 04:48:51;;;;;;;;;;;;;;;26.54;39.17;95812.31;5055318;28;6985;-39
2024/01/27 04:51:27;;;;;;;;;;;;;;;26.54;39.09;95814.31;5051712;28;9382;-40
2024/01/27 04:53:53;;;;;;;;;;;;;;;26.54;39.22;95815.06;5044636;28;7252;-41
2024/01/27 04:56:20;;;;;;;;;;;;;;;26.55;38.87;95826.88;5052480;28;7000;-40
2024/01/27 04:58:48;;;;;;;;;;;;;;;26.54;39.24;95820.59;5064515;28;7247;-39
2024/01/27 05:01:16;;;;;;;;;;;;;;;26.51;38.79;95816.03;5048063;28;7237;-42
2024/01/27 05:03:42;;;;;;;;;;;;;;;26.53;39.01;95813.56;5053732;28;7184;-42
2024/01/27 05:06:16;;;;;;;;;;;;;;;26.54;39.10;95817.06;5038418;28;6993;-43
2024/01/27 05:08:48;;;;;;;;;;;;;;;26.53;39.20;95812.81;5043729;28;7000;-42
2024/01/27 05:11:18;;;;;;;;;;;;;;;26.51;39.28;95823.56;5037631;28;7224;-43
2024/01/27 05:13:44;;;;;;;;;;;;;;;26.52;38.97;95822.31;5041533;28;8215;-43
2024/01/27 05:16:11;;;;;;;;;;;;;;;26.52;39.33;95827.84;5043086;28;7302;-42
2024/01/27 05:18:37;;;;;;;;;;;;;;;26.53;39.39;95821.84;5051073;28;9076;-43
2024/01/27 05:21:09;;;;;;;;;;;;;;;26.53;39.28;95821.84;5042387;28;8521;-43
2024/01/27 05:24:03;;;;;;;;;;;;;;;26.54;39.10;95825.34;5048518;28;6999;-43
2024/01/27 05:26:41;;;;;;;;;;;;;;;26.53;39.46;95818.34;5034643;28;7182;-42
2024/01/27 05:29:39;;;;;;;;;;;;;;;26.52;39.23;95822.31;5033777;28;7001;-42
2024/01/27 05:32:05;;;;;;;;;;;;;;;26.50;39.25;95808.25;4993093;28;8822;-43
2024/01/27 05:34:44;;;;;;;;;;;;;;;26.54;39.00;95806.81;4961036;28;9091;-44
2024/01/27 05:37:19;;;;;;;;;;;;;;;26.52;39.09;95814.03;4986967;28;6986;-44
2024/01/27 05:39:54;;;;;;;;;;;;;;;26.54;39.19;95817.06;4972667;28;7244;-43
2024/01/27 05:42:28;;;;;;;;;;;;;;;26.52;39.15;95823.09;4978037;28;7449;-43
2024/01/27 05:44:54;;;;;;;;;;;;;;;26.52;38.76;95822.31;4980449;28;6987;-43
2024/01/27 05:47:25;;;;;;;;;;;;;;;26.53;38.75;95815.56;4987115;28;9061;-42
2024/01/27 05:50:23;;;;;;;;;;;;;;;26.54;38.65;95814.31;4969556;28;9082;-42
2024/01/27 05:52:50;;;;;;;;;;;;;;;26.53;39.08;95812.81;4899471;29;7584;-42
2024/01/27 05:55:26;;;;;;;;;;;;;;;26.56;38.75;95818.09;4899164;29;8875;-43
2024/01/27 05:57:56;;;;;;;;;;;;;;;26.57;39.15;95824.41;4893615;29;7169;-42
2024/01/27 06:00:22;;;;;;;;;;;;;;;26.56;39.49;95818.09;4895138;29;8497;-42
2024/01/27 06:02:49;;;;;;;;;;;;;;;26.56;38.68;95817.34;4886616;29;9013;-38
2024/01/27 06:05:14;;;;;;;;;;;;;;;26.55;39.24;95827.66;4908516;29;7269;-38
2024/01/27 06:07:42;;;;;;;;;;;;;;;26.53;39.24;95826.59;4907953;29;7251;-38
2024/01/27 06:10:12;;;;;;;;;;;;;;;26.53;38.58;95824.63;4949470;28;8708;-38
2024/01/27 06:12:39;;;;;;;;;;;;;;;26.51;39.05;95827.06;4935818;28;9047;-38
2024/01/27 06:15:11;;;;;;;;;;;;;;;26.51;38.88;95815.28;4952129;28;9709;-38
2024/01/27 06:17:37;;;;;;;;;;;;;;;26.51;39.28;95813.28;4933236;28;9032;-37
2024/01/27 06:20:35;;;;;;;;;;;;;;;26.52;39.20;95814.81;4938191;28;7233;-38
2024/01/27 06:23:06;;;;;;;;;;;;;;;26.51;39.18;95810.50;4898984;29;7904;-38
2024/01/27 06:25:35;;;;;;;;;;;;;;;26.50;38.97;95816.53;4912256;29;7288;-38
2024/01/27 06:28:03;;;;;;;;;;;;;;;26.51;38.73;95823.56;4912371;28;8272;-38
2024/01/27 06:30:29;;;;;;;;;;;;;;;26.51;38.70;95820.81;5001719;28;8822;-38
2024/01/27 06:32:55;;;;;;;;;;;;;;;26.50;39.25;95825.56;5002557;28;7195;-38
2024/01/27 06:35:22;;;;;;;;;;;;;;;26.47;38.97;95820.25;5015638;28;9201;-38
2024/01/27 06:37:51;;;;;;;;;;;;;;;26.50;38.78;95824.81;5008066;28;7256;-38
2024/01/27 06:40:17;;;;;;;;;;;;;;;26.48;38.88;95816.25;5000935;28;7309;-38
2024/01/27 06:42:43;;;;;;;;;;;;;;;26.46;39.05;95818.72;5004570;28;8859;-38
2024/01/27 06:45:09;;;;;;;;;;;;;;;26.47;39.03;95815.47;5019373;28;9431;-38
2024/01/27 06:47:35;;;;;;;;;;;;;;;26.51;39.48;95826.34;5011961;28;9222;-38
2024/01/27 06:50:03;;;;;;;;;;;;;;;26.51;38.93;95827.06;5002532;28;8860;-38
2024/01/27 06:52:31;;;;;;;;;;;;;;;26.51;39.21;95820.81;5005974;28;9131;-38
2024/01/27 06:54:57;;;;;;;;;;;;;;;26.48;39.15;95819.78;5012730;28;6998;-38
2024/01/27 06:57:24;;;;;;;;;;;;;;;26.52;38.84;95827.84;5008014;28;8739;-38
2024/01/27 06:59:55;;;;;;;;;;;;;;;26.52;39.25;95834.13;5027320;28;9398;-38
2024/01/27 07:02:28;;;;;;;;;;;;;;;26.50;39.00;95828.31;5040839;28;7054;-39
2024/01/27 07:05:01;;;;;;;;;;;;;;;26.53;39.12;95829.38;5034610;28;7091;-38
2024/01/27 07:07:30;;;;;;;;;;;;;;;26.50;39.75;95824.81;5041611;28;7239;-38
2024/01/27 07:09:59;;;;;;;;;;;;;;;26.52;39.39;95827.84;5037327;28;9413;-38
2024/01/27 07:12:26;;;;;;;;;;;;;;;26.55;40.15;95833.16;5046700;28;7394;-38
2024/01/27 07:14:52;;;;;;;;;;;;;;;26.52;39.43;95828.59;5036016;28;7149;-38
2024/01/27 07:17:30;;;;;;;;;;;;;;;26.57;39.00;95827.16;5035961;28;8959;-38
2024/01/27 07:19:56;;;;;;;;;;;;;;;26.55;39.69;95824.88;5048954;28;7873;-38
2024/01/27 07:22:23;;;;;;;;;;;;;;;26.54;39.10;95834.41;5039599;28;7189;-38
2024/01/27 07:24:56;;;;;;;;;;;;;;;26.54;40.08;95830.88;5047493;28;8858;-37
2024/01/27 07:27:25;;;;;;;;;;;;;;;26.57;39.57;95835.44;5047099;28;9073;-38
2024/01/27 07:30:00;;;;;;;;;;;;;;;26.57;39.36;95833.44;5039912;28;9235;-38
2024/01/27 07:32:40;;;;;;;;;;;;;;;26.56;39.20;95833.91;5046963;28;7210;-37
2024/01/27 07:35:06;;;;;;;;;;;;;;;26.59;39.16;95832.94;5037685;28;7213;-37
2024/01/27 07:37:38;;;;;;;;;;;;;;;26.60;39.35;95837.25;5039505;28;9137;-38
2024/01/27 07:40:05;;;;;;;;;;;;;;;26.59;39.53;95827.44;5047769;28;7065;-38
2024/01/27 07:42:31;;;;;;;;;;;;;;;26.61;39.42;95835.97;5043494;28;7423;-38
2024/01/27 07:44:57;;;;;;;;;;;;;;;26.60;39.50;95837.97;5042056;28;7261;-38
2024/01/27 07:47:25;;;;;;;;;;;;;;;26.58;39.39;95842.47;5042342;28;7079;-38
2024/01/27 07:50:00;;;;;;;;;;;;;;;26.59;39.62;95835.72;5037184;28;7060;-37
2024/01/27 07:52:28;;;;;;;;;;;;;;;26.59;39.46;95842.00;5033574;28;8446;-37
2024/01/27 07:55:39;;;;;;;;;;;;;;;26.62;39.40;95843.03;5043906;28;9111;-37
2024/01/27 07:58:05;;;;;;;;;;;;;;;26.58;39.64;95836.94;5035502;28;7390;-38
2024/01/27 08:00:33;;;;;;;;;;;;;;;26.59;39.06;95839.22;5046863;28;7091;-38
2024/01/27 08:02:59;;;;;;;;;;;;;;;26.60;39.12;95829.69;5036470;28;7976;-37
2024/01/27 08:05:28;;;;;;;;;;;;;;;26.61;39.19;95838.75;5033402;28;8833;-37
2024/01/27 08:08:04;;;;;;;;;;;;;;;26.60;38.83;95834.47;5036633;28;7121;-38
2024/01/27 08:10:49;;;;;;;;;;;;;;;26.63;39.24;95839.00;5042634;28;7211;-38
2024/01/27 08:13:43;;;;;;;;;;;;;;;26.63;39.13;95841.78;5046508;28;8766;-37
2024/01/27 08:16:17;;;;;;;;;;;;;;;26.63;39.41;95828.75;5019350;28;7373;-38
2024/01/27 08:18:45;;;;;;;;;;;;;;;26.63;39.79;95833.50;5008434;28;7002;-38
2024/01/27 08:21:36;;;;;;;;;;;;;;;26.66;39.24;95832.53;5017083;28;9502;-38
2024/01/27 08:24:02;;;;;;;;;;;;;;;26.62;38.74;95829.97;5007023;28;9177;-38
2024/01/27 08:26:28;;;;;;;;;;;;;;;26.64;38.95;95830.25;5014543;28;8204;-38
2024/01/27 08:29:07;;;;;;;;;;;;;;;26.63;39.35;95828.75;5033624;28;6973;-38
2024/01/27 08:31:43;;;;;;;;;;;;;;;26.67;39.02;95839.56;5021355;28;7413;-38
2024/01/27 08:34:22;;;;;;;;;;;;;;;26.68;39.13;95835.56;5014594;28;7885;-38
2024/01/27 08:37:01;;;;;;;;;;;;;;;26.66;39.31;95827.78;5026063;28;7323;-38
2024/01/27 08:39:30;;;;;;;;;;;;;;;26.64;39.01;95829.50;5009769;28;9202;-38
2024/01/27 08:42:05;;;;;;;;;;;;;;;26.66;39.74;95832.53;5004055;28;7218;-38
2024/01/27 08:44:33;;;;;;;;;;;;;;;26.64;39.11;95835.75;5013146;28;7258;-38
2024/01/27 08:47:03;;;;;;;;;;;;;;;26.61;39.35;95831.22;5010879;28;8643;-38
2024/01/27 08:49:29;;;;;;;;;;;;;;;26.66;39.49;95838.06;4999512;28;9759;-38
2024/01/27 08:52:09;;;;;;;;;;;;;;;26.63;39.06;95839.00;5018134;28;8568;-38
2024/01/27 08:54:42;;;;;;;;;;;;;;;26.63;39.00;95847.28;5056470;28;7246;-38
2024/01/27 08:57:08;;;;;;;;;;;;;;;26.64;39.08;95846.06;5059188;28;7300;-37
2024/01/27 08:59:35;;;;;;;;;;;;;;;26.63;39.66;95837.03;5053290;28;7167;-37
2024/01/27 09:02:03;;;;;;;;;;;;;;;26.64;39.52;95846.06;5048637;28;8242;-38
2024/01/27 09:04:32;;;;;;;;;;;;;;;26.61;35.97;95847.03;5040133;28;8719;-38
2024/01/27 09:07:03;;;;;;;;;;;;;;;26.45;33.22;95850.31;5043090;28;7260;-36
2024/01/27 09:09:30;;;;;;;;;;;;;;;26.33;32.70;95854.16;5053753;28;7287;-37
2024/01/27 09:11:59;;;;;;;;;;;;;;;26.23;31.74;95850.03;5044465;28;6939;-37
2024/01/27 09:14:24;;;;;;;;;;;;;;;26.21;31.79;95858.03;5031373;28;7145;-37
2024/01/27 09:16:52;;;;;;;;;;;;;;;26.20;32.01;95851.75;5043672;28;9437;-37
2024/01/27 09:19:22;;;;;;;;;;;;;;;26.21;31.93;95841.47;5039647;28;9477;-37
2024/01/27 09:21:49;;;;;;;;;;;;;;;26.25;33.06;95837.28;5036094;28;7845;-37
2024/01/27 09:24:22;;;;;;;;;;;;;;;26.27;32.76;95839.56;5040223;28;7259;-37
2024/01/27 09:26:48;;;;;;;;;;;;;;;26.29;33.20;95848.88;5041611;28;7054;-37
2024/01/27 09:29:20;;;;;;;;;;;;;;;26.29;32.94;95846.09;5036875;28;9025;-37
2024/01/27 09:31:54;;;;;;;;;;;;;;;26.35;33.33;95843.41;5049915;28;8220;-38
2024/01/27 09:34:24;;;;;;;;;;;;;;;26.37;32.88;95843.69;5035414;28;8889;-38
2024/01/27 09:36:50;;;;;;;;;;;;;;;26.37;33.62;95838.94;5047295;28;7125;-39
2024/01/27 09:39:18;;;;;;;;;;;;;;;26.42;33.37;95840.25;5044826;28;7411;-39
2024/01/27 09:41:45;;;;;;;;;;;;;;;26.43;33.98;95844.50;5045983;28;6973;-38
2024/01/27 09:44:37;;;;;;;;;;;;;;;26.42;33.93;95843.78;5043918;28;9517;-38
2024/01/27 09:47:03;;;;;;;;;;;;;;;26.44;34.19;95849.56;5035283;28;7537;-38
2024/01/27 09:49:34;;;;;;;;;;;;;;;26.45;34.37;95847.56;5041163;28;7083;-38
2024/01/27 09:52:15;;;;;;;;;;;;;;;26.44;33.70;95837.78;5038993;28;9047;-38
2024/01/27 09:54:42;;;;;;;;;;;;;;;26.43;34.37;95845.28;5054381;28;7245;-38
2024/01/27 09:57:27;;;;;;;;;;;;;;;26.46;34.27;95835.28;5053832;28;7239;-39
2024/01/27 09:59:53;;;;;;;;;;;;;;;26.45;33.44;95836.50;5055073;28;9426;-38
2024/01/27 10:02:20;;;;;;;;;;;;;;;26.43;33.61;95833.47;5042345;28;9136;-38
2024/01/27 10:04:48;;;;;;;;;;;;;;;26.45;33.56;95831.75;5044604;28;7060;-39
2024/01/27 10:07:40;;;;;;;;;;;;;;;26.45;33.74;95828.25;5050248;28;7215;-39
2024/01/27 10:10:08;;;;;;;;;;;;;;;26.45;34.63;95820.72;5034795;28;7297;-38
2024/01/27 10:12:44;;;;;;;;;;;;;;;26.46;34.15;95813.22;5040885;28;7356;-38
2024/01/27 10:15:24;;;;;;;;;;;;;;;26.47;34.06;95823.75;5034112;28;7036;-38
2024/01/27 10:18:12;;;;;;;;;;;;;;;26.45;34.26;95815.22;5049928;28;8718;-39
2024/01/27 10:20:39;;;;;;;;;;;;;;;26.50;34.48;95813.75;5049659;28;7262;-38
2024/01/27 10:23:17;;;;;;;;;;;;;;;26.51;34.68;95807.03;5060501;28;7483;-38
2024/01/27 10:25:53;;;;;;;;;;;;;;;26.48;34.69;95810.72;5035118;28;9082;-39
2024/01/27 10:28:55;;;;;;;;;;;;;;;26.52;34.58;95816.78;5033484;28;7435;-38
2024/01/27 10:31:49;;;;;;;;;;;;;;;26.52;34.77;95819.56;5054398;28;6995;-38
2024/01/27 10:34:19;;;;;;;;;;;;;;;26.53;34.96;95824.63;5040592;28;7358;-39
2024/01/27 10:36:57;;;;;;;;;;;;;;;26.53;35.05;95818.34;5055881;28;7068;-38
2024/01/27 10:39:33;;;;;;;;;;;;;;;26.53;34.82;95818.34;5072585;28;7239;-38
2024/01/27 10:42:11;;;;;;;;;;;;;;;26.55;34.44;95815.84;5053176;28;7153;-36
2024/01/27 10:44:43;;;;;;;;;;;;;;;26.55;35.10;95807.56;5034908;28;7005;-36
2024/01/27 10:47:19;;;;;;;;;;;;;;;26.58;35.12;95795.53;5059453;28;7132;-36
2024/01/27 10:50:00;;;;;;;;;;;;;;;26.59;34.98;95791.56;5051559;28;7036;-36
2024/01/27 10:52:32;;;;;;;;;;;;;;;26.57;35.19;95792.03;5037048;28;7053;-36
2024/01/27 10:58:52;;;;;;;;;;;;;;;26.58;35.09;95792.78;5060120;28;6773;-36
2024/01/27 11:01:22;;;;;;;;;;;;;;;26.61;35.48;95789.06;5047237;28;7359;-36
2024/01/27 11:03:49;;;;;;;;;;;;;;;26.65;35.51;95803.41;5052778;28;7221;-36
2024/01/27 11:06:20;;;;;;;;;;;;;;;26.64;35.69;95793.63;5051771;28;7236;-36
2024/01/27 11:08:54;;;;;;;;;;;;;;;26.66;34.95;95788.38;5031976;28;8447;-36
2024/01/27 11:11:20;;;;;;;;;;;;;;;26.64;35.83;95786.09;5034689;28;7106;-36
2024/01/27 11:13:50;;;;;;;;;;;;;;;26.64;35.89;95786.09;5049009;28;7379;-37
2024/01/27 11:16:20;;;;;;;;;;;;;;;26.64;35.74;95780.56;5032772;28;9243;-36
2024/01/27 11:18:53;;;;;;;;;;;;;;;26.68;35.80;95769.34;5033104;28;7197;-36
2024/01/27 11:21:32;;;;;;;;;;;;;;;26.72;35.25;95769.88;5034218;28;8757;-36
2024/01/27 11:23:58;;;;;;;;;;;;;;;26.73;35.62;95757.63;5034523;28;7132;-36
2024/01/27 11:26:25;;;;;;;;;;;;;;;26.74;35.62;95761.91;5036366;28;7180;-36
2024/01/27 11:28:52;;;;;;;;;;;;;;;26.74;35.47;95757.13;5040468;28;7068;-36
2024/01/27 11:31:19;;;;;;;;;;;;;;;26.77;35.75;95750.63;5035694;28;7166;-36
2024/01/27 11:33:52;;;;;;;;;;;;;;;26.79;35.81;95750.16;5050322;28;7242;-36
2024/01/27 11:36:21;;;;;;;;;;;;;;;26.80;35.61;95748.91;5041919;28;7153;-36
2024/01/27 11:38:50;;;;;;;;;;;;;;;26.80;36.10;95748.91;5046253;28;7349;-36
2024/01/27 11:41:34;;;;;;;;;;;;;;;26.82;35.32;95751.94;5044344;28;7235;-36
2024/01/27 11:44:03;;;;;;;;;;;;;;;26.87;36.03;95757.53;5052378;28;8462;-36
2024/01/27 11:46:36;;;;;;;;;;;;;;;26.89;35.75;95757.81;5043526;28;8831;-36
2024/01/27 11:49:05;;;;;;;;;;;;;;;26.89;35.52;95762.56;5036756;28;7253;-36
2024/01/27 11:51:32;;;;;;;;;;;;;;;26.87;35.92;95756.75;5038414;28;6918;-37
2024/01/27 11:53:59;;;;;;;;;;;;;;;26.94;35.69;95752.81;5042334;28;7255;-37
2024/01/27 11:56:29;;;;;;;;;;;;;;;26.96;35.83;95751.09;5035383;28;7050;-37
2024/01/27 11:58:58;;;;;;;;;;;;;;;26.96;36.03;95740.03;5051349;28;7231;-36
2024/01/27 12:01:24;;;;;;;;;;;;;;;26.98;35.98;95747.81;5024412;28;7275;-37
2024/01/27 12:03:53;;;;;;;;;;;;;;;26.97;36.27;95741.53;5036401;28;9055;-37
2024/01/27 12:06:20;;;;;;;;;;;;;;;26.96;36.19;95742.03;5037224;28;7350;-37
2024/01/27 12:08:48;;;;;;;;;;;;;;;26.95;35.94;95741.28;5037135;28;6989;-37
2024/01/27 12:11:14;;;;;;;;;;;;;;;26.97;36.48;95740.81;5039229;28;9423;-37
2024/01/27 12:13:41;;;;;;;;;;;;;;;26.96;36.35;95739.28;5039437;28;9027;-37
2024/01/27 12:16:08;;;;;;;;;;;;;;;26.96;36.43;95739.28;5036391;28;9389;-37
2024/01/27 12:18:36;;;;;;;;;;;;;;;26.97;36.76;95732.53;5044398;28;7045;-37
2024/01/27 12:21:35;;;;;;;;;;;;;;;27.00;36.69;95734.28;5035560;28;6969;-37
2024/01/27 12:24:04;;;;;;;;;;;;;;;26.97;36.79;95730.50;5036156;28;7302;-37
2024/01/27 12:26:39;;;;;;;;;;;;;;;26.99;36.95;95725.25;5036014;28;7147;-37
2024/01/27 12:29:05;;;;;;;;;;;;;;;27.01;36.71;95728.31;5046131;28;6997;-37
2024/01/27 12:31:34;;;;;;;;;;;;;;;27.02;36.64;95729.81;5037055;28;9074;-37
2024/01/27 12:34:01;;;;;;;;;;;;;;;27.02;36.42;95721.50;5049254;28;7266;-37
2024/01/27 12:36:27;;;;;;;;;;;;;;;27.05;36.81;95728.84;5042296;28;7084;-37
2024/01/27 12:39:10;;;;;;;;;;;;;;;27.09;36.65;95723.84;5052871;28;7218;-37
2024/01/27 12:41:38;;;;;;;;;;;;;;;27.09;37.11;95723.84;5046483;28;7504;-37
2024/01/27 12:44:23;;;;;;;;;;;;;;;27.10;36.64;95716.31;5055061;28;7151;-37
2024/01/27 12:46:57;;;;;;;;;;;;;;;27.12;36.77;95714.56;5055099;28;7114;-37
2024/01/27 12:49:29;;;;;;;;;;;;;;;27.15;36.92;95705.31;5046840;28;7902;-37
2024/01/27 12:51:58;;;;;;;;;;;;;;;27.17;36.88;95710.34;5035386;28;8927;-37
2024/01/27 12:54:53;;;;;;;;;;;;;;;27.18;36.84;95709.09;5039094;28;7072;-37
2024/01/27 12:57:48;;;;;;;;;;;;;;;27.18;37.00;95707.09;4998038;28;7035;-37
2024/01/27 13:00:15;;;;;;;;;;;;;;;27.20;37.06;95707.38;4993633;28;7015;-56
2024/01/27 13:02:40;;;;;;;;;;;;;;;27.19;37.08;95703.06;4978111;28;7265;-56
2024/01/27 13:05:07;;;;;;;;;;;;;;;27.23;36.77;95703.59;4973377;28;6942;-56
2024/01/27 13:07:33;;;;;;;;;;;;;;;27.27;37.04;95697.88;4977103;28;7193;-56
2024/01/27 13:10:09;;;;;;;;;;;;;;;27.31;37.06;95688.13;4994132;28;7005;-56
2024/01/27 13:12:58;;;;;;;;;;;;;;;27.33;37.05;95682.09;4977817;28;6999;-56
2024/01/27 13:15:25;;;;;;;;;;;;;;;27.37;36.74;95685.41;4976811;28;7212;-56
2024/01/27 13:17:59;;;;;;;;;;;;;;;27.39;37.10;95678.16;4959196;28;7271;-56
2024/01/27 13:20:34;;;;;;;;;;;;;;;27.38;36.74;95664.84;4972350;28;7270;-56
2024/01/27 13:23:11;;;;;;;;;;;;;;;27.42;36.93;95668.88;4974707;28;7041;-56
2024/01/27 13:25:38;;;;;;;;;;;;;;;27.44;36.93;95669.16;4974811;28;8999;-56
2024/01/27 13:28:07;;;;;;;;;;;;;;;27.48;37.01;95674.44;4976621;28;8559;-56
2024/01/27 13:30:42;;;;;;;;;;;;;;;27.44;37.16;95669.16;4971523;28;9051;-56
2024/01/27 13:33:20;;;;;;;;;;;;;;;27.51;36.91;95681.75;4977621;28;9304;-56